sensor_id;sensor_type;location;lat;lon;timestamp;temperature;humidity
24744;DHT22;12844;52.110;5.548;2023-05-28T00:00:07;21.70;54.60
24744;DHT22;12844;52.110;5.548;2023-05-28T00:02:34;21.70;54.60
24744;DHT22;12844;52.110;5.548;2023-05-28T00:04:59;21.70;54.60
24744;DHT22;12844;52.110;5.548;2023-05-28T00:07:26;21.70;54.50
24744;DHT22;12844;52.110;5.548;2023-05-28T00:09:54;21.70;54.50
24744;DHT22;12844;52.110;5.548;2023-05-28T00:12:20;21.70;54.50
24744;DHT22;12844;52.110;5.548;2023-05-28T00:14:45;21.70;54.50
24744;DHT22;12844;52.110;5.548;2023-05-28T00:17:12;21.70;54.50
24744;DHT22;12844;52.110;5.548;2023-05-28T00:19:37;21.70;54.50
24744;DHT22;12844;52.110;5.548;2023-05-28T00:22:03;21.70;54.50
24744;DHT22;12844;52.110;5.548;2023-05-28T00:24:29;21.70;54.50
24744;DHT22;12844;52.110;5.548;2023-05-28T00:26:55;21.60;54.50
24744;DHT22;12844;52.110;5.548;2023-05-28T00:29:20;21.60;54.50
24744;DHT22;12844;52.110;5.548;2023-05-28T00:31:46;21.70;54.50
24744;DHT22;12844;52.110;5.548;2023-05-28T00:34:11;21.70;54.50
24744;DHT22;12844;52.110;5.548;2023-05-28T00:36:36;21.70;54.50
24744;DHT22;12844;52.110;5.548;2023-05-28T00:39:02;21.70;54.80
24744;DHT22;12844;52.110;5.548;2023-05-28T00:41:30;21.70;54.50
24744;DHT22;12844;52.110;5.548;2023-05-28T00:43:56;21.60;54.50
24744;DHT22;12844;52.110;5.548;2023-05-28T00:46:23;21.60;54.50
24744;DHT22;12844;52.110;5.548;2023-05-28T00:48:49;21.70;54.50
24744;DHT22;12844;52.110;5.548;2023-05-28T00:51:15;21.70;54.50
24744;DHT22;12844;52.110;5.548;2023-05-28T00:53:42;21.60;54.50
24744;DHT22;12844;52.110;5.548;2023-05-28T00:56:11;21.60;54.50
24744;DHT22;12844;52.110;5.548;2023-05-28T00:58:38;21.60;54.40
24744;DHT22;12844;52.110;5.548;2023-05-28T01:01:06;21.60;54.50
24744;DHT22;12844;52.110;5.548;2023-05-28T01:03:32;21.60;54.50
24744;DHT22;12844;52.110;5.548;2023-05-28T01:05:57;21.60;54.40
24744;DHT22;12844;52.110;5.548;2023-05-28T01:08:27;21.60;54.40
24744;DHT22;12844;52.110;5.548;2023-05-28T01:10:52;21.60;54.40
24744;DHT22;12844;52.110;5.548;2023-05-28T01:13:18;21.60;54.40
24744;DHT22;12844;52.110;5.548;2023-05-28T01:15:43;21.60;55.10
24744;DHT22;12844;52.110;5.548;2023-05-28T01:18:09;21.60;54.40
24744;DHT22;12844;52.110;5.548;2023-05-28T01:20:35;21.60;54.40
24744;DHT22;12844;52.110;5.548;2023-05-28T01:23:06;21.60;54.40
24744;DHT22;12844;52.110;5.548;2023-05-28T01:25:33;21.60;54.40
24744;DHT22;12844;52.110;5.548;2023-05-28T01:27:59;21.60;54.40
24744;DHT22;12844;52.110;5.548;2023-05-28T01:30:28;21.60;54.40
24744;DHT22;12844;52.110;5.548;2023-05-28T01:32:54;21.60;54.40
24744;DHT22;12844;52.110;5.548;2023-05-28T01:35:20;21.60;54.40
24744;DHT22;12844;52.110;5.548;2023-05-28T01:37:51;21.60;54.40
24744;DHT22;12844;52.110;5.548;2023-05-28T01:40:19;21.60;54.30
24744;DHT22;12844;52.110;5.548;2023-05-28T01:42:46;21.60;54.40
24744;DHT22;12844;52.110;5.548;2023-05-28T01:45:12;21.60;54.40
24744;DHT22;12844;52.110;5.548;2023-05-28T01:47:39;21.60;54.30
24744;DHT22;12844;52.110;5.548;2023-05-28T01:50:06;21.60;54.30
24744;DHT22;12844;52.110;5.548;2023-05-28T01:52:32;21.60;54.30
24744;DHT22;12844;52.110;5.548;2023-05-28T01:54:58;21.60;54.30
24744;DHT22;12844;52.110;5.548;2023-05-28T01:57:23;21.60;54.30
24744;DHT22;12844;52.110;5.548;2023-05-28T01:59:49;21.60;54.30
24744;DHT22;12844;52.110;5.548;2023-05-28T02:02:14;21.60;54.30
24744;DHT22;12844;52.110;5.548;2023-05-28T02:04:40;21.60;54.30
24744;DHT22;12844;52.110;5.548;2023-05-28T02:07:06;21.60;54.30
24744;DHT22;12844;52.110;5.548;2023-05-28T02:09:31;21.60;54.30
24744;DHT22;12844;52.110;5.548;2023-05-28T02:11:57;21.60;54.30
24744;DHT22;12844;52.110;5.548;2023-05-28T02:14:24;21.60;54.30
24744;DHT22;12844;52.110;5.548;2023-05-28T02:16:50;21.60;54.30
24744;DHT22;12844;52.110;5.548;2023-05-28T02:19:18;21.60;54.30
24744;DHT22;12844;52.110;5.548;2023-05-28T02:21:44;21.60;54.30
24744;DHT22;12844;52.110;5.548;2023-05-28T02:24:10;21.60;54.30
24744;DHT22;12844;52.110;5.548;2023-05-28T02:26:35;21.60;54.30
24744;DHT22;12844;52.110;5.548;2023-05-28T02:29:01;21.50;54.20
24744;DHT22;12844;52.110;5.548;2023-05-28T02:31:27;21.50;54.20
24744;DHT22;12844;52.110;5.548;2023-05-28T02:33:52;21.60;54.20
24744;DHT22;12844;52.110;5.548;2023-05-28T02:36:18;21.60;54.20
24744;DHT22;12844;52.110;5.548;2023-05-28T02:38:43;21.60;54.20
24744;DHT22;12844;52.110;5.548;2023-05-28T02:41:09;21.50;54.20
24744;DHT22;12844;52.110;5.548;2023-05-28T02:43:35;21.60;54.20
24744;DHT22;12844;52.110;5.548;2023-05-28T02:46:00;21.60;54.20
24744;DHT22;12844;52.110;5.548;2023-05-28T02:48:26;21.60;54.20
24744;DHT22;12844;52.110;5.548;2023-05-28T02:50:52;21.60;54.20
24744;DHT22;12844;52.110;5.548;2023-05-28T02:53:22;21.60;54.10
24744;DHT22;12844;52.110;5.548;2023-05-28T02:55:48;21.60;54.20
24744;DHT22;12844;52.110;5.548;2023-05-28T02:58:14;21.50;54.10
24744;DHT22;12844;52.110;5.548;2023-05-28T03:00:41;21.60;54.10
24744;DHT22;12844;52.110;5.548;2023-05-28T03:03:07;21.60;54.10
24744;DHT22;12844;52.110;5.548;2023-05-28T03:05:33;21.60;54.10
24744;DHT22;12844;52.110;5.548;2023-05-28T03:07:59;21.60;54.10
24744;DHT22;12844;52.110;5.548;2023-05-28T03:10:24;21.60;54.10
24744;DHT22;12844;52.110;5.548;2023-05-28T03:12:50;21.60;54.70
24744;DHT22;12844;52.110;5.548;2023-05-28T03:15:16;21.60;54.10
24744;DHT22;12844;52.110;5.548;2023-05-28T03:17:41;21.60;54.00
24744;DHT22;12844;52.110;5.548;2023-05-28T03:20:07;21.60;54.00
24744;DHT22;12844;52.110;5.548;2023-05-28T03:22:39;21.50;54.00
24744;DHT22;12844;52.110;5.548;2023-05-28T03:25:05;21.60;54.00
24744;DHT22;12844;52.110;5.548;2023-05-28T03:27:31;21.60;54.00
24744;DHT22;12844;52.110;5.548;2023-05-28T03:29:57;21.60;54.00
24744;DHT22;12844;52.110;5.548;2023-05-28T03:32:22;21.60;54.10
24744;DHT22;12844;52.110;5.548;2023-05-28T03:34:48;21.60;54.00
24744;DHT22;12844;52.110;5.548;2023-05-28T03:37:13;21.60;54.00
24744;DHT22;12844;52.110;5.548;2023-05-28T03:39:40;21.60;54.00
24744;DHT22;12844;52.110;5.548;2023-05-28T03:42:06;21.50;54.00
24744;DHT22;12844;52.110;5.548;2023-05-28T03:44:33;21.60;54.00
24744;DHT22;12844;52.110;5.548;2023-05-28T03:46:58;21.60;54.00
24744;DHT22;12844;52.110;5.548;2023-05-28T03:49:24;21.60;54.00
24744;DHT22;12844;52.110;5.548;2023-05-28T03:51:50;21.50;54.00
24744;DHT22;12844;52.110;5.548;2023-05-28T03:54:15;21.50;54.00
24744;DHT22;12844;52.110;5.548;2023-05-28T03:56:41;21.50;54.00
24744;DHT22;12844;52.110;5.548;2023-05-28T03:59:06;21.50;54.00
24744;DHT22;12844;52.110;5.548;2023-05-28T04:01:32;21.50;54.00
24744;DHT22;12844;52.110;5.548;2023-05-28T04:03:59;21.50;54.00
24744;DHT22;12844;52.110;5.548;2023-05-28T04:06:25;21.50;53.90
24744;DHT22;12844;52.110;5.548;2023-05-28T04:08:51;21.50;53.90
24744;DHT22;12844;52.110;5.548;2023-05-28T04:11:17;21.60;54.00
24744;DHT22;12844;52.110;5.548;2023-05-28T04:13:43;21.50;54.00
24744;DHT22;12844;52.110;5.548;2023-05-28T04:16:08;21.50;53.90
24744;DHT22;12844;52.110;5.548;2023-05-28T04:18:34;21.50;54.60
24744;DHT22;12844;52.110;5.548;2023-05-28T04:21:00;21.50;53.90
24744;DHT22;12844;52.110;5.548;2023-05-28T04:23:26;21.50;53.90
24744;DHT22;12844;52.110;5.548;2023-05-28T04:25:51;21.50;53.90
24744;DHT22;12844;52.110;5.548;2023-05-28T04:28:19;21.50;53.90
24744;DHT22;12844;52.110;5.548;2023-05-28T04:30:45;21.50;54.00
24744;DHT22;12844;52.110;5.548;2023-05-28T04:33:10;21.50;54.00
24744;DHT22;12844;52.110;5.548;2023-05-28T04:35:36;21.50;54.00
24744;DHT22;12844;52.110;5.548;2023-05-28T04:38:01;21.50;54.00
24744;DHT22;12844;52.110;5.548;2023-05-28T04:40:27;21.50;54.00
24744;DHT22;12844;52.110;5.548;2023-05-28T04:42:53;21.50;54.00
24744;DHT22;12844;52.110;5.548;2023-05-28T04:45:19;21.50;54.00
24744;DHT22;12844;52.110;5.548;2023-05-28T04:47:45;21.50;54.00
24744;DHT22;12844;52.110;5.548;2023-05-28T04:50:11;21.50;54.10
24744;DHT22;12844;52.110;5.548;2023-05-28T04:52:36;21.50;54.10
24744;DHT22;12844;52.110;5.548;2023-05-28T04:55:03;21.40;54.00
24744;DHT22;12844;52.110;5.548;2023-05-28T04:57:29;21.50;54.10
24744;DHT22;12844;52.110;5.548;2023-05-28T04:59:55;21.50;54.10
24744;DHT22;12844;52.110;5.548;2023-05-28T05:02:20;21.40;54.00
24744;DHT22;12844;52.110;5.548;2023-05-28T05:04:47;21.40;54.00
24744;DHT22;12844;52.110;5.548;2023-05-28T05:07:13;21.40;54.10
24744;DHT22;12844;52.110;5.548;2023-05-28T05:09:39;21.40;54.00
24744;DHT22;12844;52.110;5.548;2023-05-28T05:12:05;21.50;54.10
24744;DHT22;12844;52.110;5.548;2023-05-28T05:14:31;21.40;54.10
24744;DHT22;12844;52.110;5.548;2023-05-28T05:16:57;21.40;54.00
24744;DHT22;12844;52.110;5.548;2023-05-28T05:19:22;21.40;54.00
24744;DHT22;12844;52.110;5.548;2023-05-28T05:21:48;21.40;54.00
24744;DHT22;12844;52.110;5.548;2023-05-28T05:24:14;21.40;54.00
24744;DHT22;12844;52.110;5.548;2023-05-28T05:26:40;21.40;54.00
24744;DHT22;12844;52.110;5.548;2023-05-28T05:29:06;21.40;54.00
24744;DHT22;12844;52.110;5.548;2023-05-28T05:31:31;21.40;54.00
24744;DHT22;12844;52.110;5.548;2023-05-28T05:33:57;21.40;54.00
24744;DHT22;12844;52.110;5.548;2023-05-28T05:36:22;21.40;54.00
24744;DHT22;12844;52.110;5.548;2023-05-28T05:38:48;21.40;54.00
24744;DHT22;12844;52.110;5.548;2023-05-28T05:41:13;21.40;54.00
24744;DHT22;12844;52.110;5.548;2023-05-28T05:43:39;21.40;54.00
24744;DHT22;12844;52.110;5.548;2023-05-28T05:46:04;21.40;54.00
24744;DHT22;12844;52.110;5.548;2023-05-28T05:48:30;21.40;54.00
24744;DHT22;12844;52.110;5.548;2023-05-28T05:50:56;21.40;54.00
24744;DHT22;12844;52.110;5.548;2023-05-28T05:53:23;21.40;54.10
24744;DHT22;12844;52.110;5.548;2023-05-28T05:55:49;21.40;54.00
24744;DHT22;12844;52.110;5.548;2023-05-28T05:58:14;21.40;54.00
24744;DHT22;12844;52.110;5.548;2023-05-28T06:00:40;21.40;54.00
24744;DHT22;12844;52.110;5.548;2023-05-28T06:03:06;21.40;54.00
24744;DHT22;12844;52.110;5.548;2023-05-28T06:05:33;21.40;54.10
24744;DHT22;12844;52.110;5.548;2023-05-28T06:07:58;21.40;54.10
24744;DHT22;12844;52.110;5.548;2023-05-28T07:20:18;21.50;53.80
24744;DHT22;12844;52.110;5.548;2023-05-28T07:22:44;21.50;53.90
24744;DHT22;12844;52.110;5.548;2023-05-28T07:25:09;21.50;53.80
24744;DHT22;12844;52.110;5.548;2023-05-28T07:27:35;21.50;53.80
24744;DHT22;12844;52.110;5.548;2023-05-28T07:30:00;21.50;53.80
24744;DHT22;12844;52.110;5.548;2023-05-28T07:32:26;21.50;53.90
24744;DHT22;12844;52.110;5.548;2023-05-28T07:34:51;21.50;53.90
24744;DHT22;12844;52.110;5.548;2023-05-28T07:37:17;21.50;54.50
24744;DHT22;12844;52.110;5.548;2023-05-28T07:39:42;21.50;53.90
24744;DHT22;12844;52.110;5.548;2023-05-28T07:42:08;21.50;53.90
24744;DHT22;12844;52.110;5.548;2023-05-28T07:44:33;21.50;53.90
24744;DHT22;12844;52.110;5.548;2023-05-28T07:46:59;21.60;54.00
24744;DHT22;12844;52.110;5.548;2023-05-28T07:49:25;21.60;54.00
24744;DHT22;12844;52.110;5.548;2023-05-28T07:51:51;21.60;54.00
24744;DHT22;12844;52.110;5.548;2023-05-28T07:54:16;21.50;53.90
24744;DHT22;12844;52.110;5.548;2023-05-28T07:56:42;21.50;53.90
24744;DHT22;12844;52.110;5.548;2023-05-28T07:59:08;21.60;54.00
24744;DHT22;12844;52.110;5.548;2023-05-28T08:01:33;21.50;53.90
24744;DHT22;12844;52.110;5.548;2023-05-28T08:04:00;21.60;54.00
24744;DHT22;12844;52.110;5.548;2023-05-28T08:06:26;21.60;54.00
24744;DHT22;12844;52.110;5.548;2023-05-28T08:08:52;21.60;54.00
24744;DHT22;12844;52.110;5.548;2023-05-28T08:11:18;21.60;54.00
24744;DHT22;12844;52.110;5.548;2023-05-28T08:13:43;21.60;54.00
24744;DHT22;12844;52.110;5.548;2023-05-28T08:16:12;21.60;54.00
24744;DHT22;12844;52.110;5.548;2023-05-28T08:18:38;21.60;53.90
24744;DHT22;12844;52.110;5.548;2023-05-28T08:21:05;21.60;53.90
24744;DHT22;12844;52.110;5.548;2023-05-28T08:23:31;21.60;53.90
24744;DHT22;12844;52.110;5.548;2023-05-28T08:26:00;21.70;53.90
24744;DHT22;12844;52.110;5.548;2023-05-28T08:28:27;21.70;53.80
24744;DHT22;12844;52.110;5.548;2023-05-28T08:30:53;21.70;53.80
24744;DHT22;12844;52.110;5.548;2023-05-28T08:33:18;21.70;53.80
24744;DHT22;12844;52.110;5.548;2023-05-28T08:35:44;21.70;53.80
24744;DHT22;12844;52.110;5.548;2023-05-28T08:38:09;21.70;53.80
24744;DHT22;12844;52.110;5.548;2023-05-28T08:40:40;21.70;53.70
24744;DHT22;12844;52.110;5.548;2023-05-28T08:43:06;21.80;53.80
24744;DHT22;12844;52.110;5.548;2023-05-28T08:45:34;21.80;53.80
24744;DHT22;12844;52.110;5.548;2023-05-28T08:48:00;21.80;53.80
24744;DHT22;12844;52.110;5.548;2023-05-28T08:50:27;21.80;53.70
24744;DHT22;12844;52.110;5.548;2023-05-28T08:52:53;21.90;53.70
24744;DHT22;12844;52.110;5.548;2023-05-28T08:55:19;21.90;53.70
24744;DHT22;12844;52.110;5.548;2023-05-28T08:57:45;21.90;53.70
24744;DHT22;12844;52.110;5.548;2023-05-28T09:00:12;21.90;53.60
24744;DHT22;12844;52.110;5.548;2023-05-28T09:02:39;21.90;53.60
24744;DHT22;12844;52.110;5.548;2023-05-28T09:05:05;21.90;53.60
24744;DHT22;12844;52.110;5.548;2023-05-28T09:07:31;22.00;53.60
24744;DHT22;12844;52.110;5.548;2023-05-28T09:09:57;22.00;53.60
24744;DHT22;12844;52.110;5.548;2023-05-28T09:12:23;22.00;53.60
24744;DHT22;12844;52.110;5.548;2023-05-28T09:14:51;22.00;53.60
24744;DHT22;12844;52.110;5.548;2023-05-28T09:17:35;22.00;53.60
24744;DHT22;12844;52.110;5.548;2023-05-28T09:20:01;22.00;53.50
24744;DHT22;12844;52.110;5.548;2023-05-28T09:22:27;22.00;53.60
24744;DHT22;12844;52.110;5.548;2023-05-28T09:24:53;22.00;53.60
24744;DHT22;12844;52.110;5.548;2023-05-28T09:27:20;22.00;53.50
24744;DHT22;12844;52.110;5.548;2023-05-28T09:29:47;22.10;53.60
24744;DHT22;12844;52.110;5.548;2023-05-28T09:32:17;22.10;53.50
24744;DHT22;12844;52.110;5.548;2023-05-28T09:34:43;22.10;53.50
24744;DHT22;12844;52.110;5.548;2023-05-28T09:37:09;22.10;53.50
24744;DHT22;12844;52.110;5.548;2023-05-28T09:39:34;22.10;53.60
24744;DHT22;12844;52.110;5.548;2023-05-28T09:42:04;22.10;53.50
24744;DHT22;12844;52.110;5.548;2023-05-28T09:44:36;22.10;53.60
24744;DHT22;12844;52.110;5.548;2023-05-28T09:47:11;22.10;53.50
24744;DHT22;12844;52.110;5.548;2023-05-28T09:49:37;22.20;53.50
24744;DHT22;12844;52.110;5.548;2023-05-28T09:52:04;22.10;53.40
24744;DHT22;12844;52.110;5.548;2023-05-28T09:54:35;22.20;53.50
24744;DHT22;12844;52.110;5.548;2023-05-28T09:57:02;22.20;53.50
24744;DHT22;12844;52.110;5.548;2023-05-28T09:59:33;22.20;53.40
24744;DHT22;12844;52.110;5.548;2023-05-28T10:04:34;22.20;53.40
24744;DHT22;12844;52.110;5.548;2023-05-28T10:07:02;22.20;53.40
24744;DHT22;12844;52.110;5.548;2023-05-28T10:09:31;22.20;53.40
24744;DHT22;12844;52.110;5.548;2023-05-28T10:12:04;22.20;53.30
24744;DHT22;12844;52.110;5.548;2023-05-28T10:14:31;22.30;53.50
24744;DHT22;12844;52.110;5.548;2023-05-28T10:16:58;22.30;53.40
24744;DHT22;12844;52.110;5.548;2023-05-28T10:19:24;22.30;53.40
24744;DHT22;12844;52.110;5.548;2023-05-28T10:21:51;22.30;53.30
24744;DHT22;12844;52.110;5.548;2023-05-28T10:24:16;22.30;53.40
24744;DHT22;12844;52.110;5.548;2023-05-28T10:26:43;22.30;53.50
24744;DHT22;12844;52.110;5.548;2023-05-28T10:29:09;22.30;53.40
24744;DHT22;12844;52.110;5.548;2023-05-28T10:31:34;22.30;53.40
24744;DHT22;12844;52.110;5.548;2023-05-28T10:34:00;22.40;53.40
24744;DHT22;12844;52.110;5.548;2023-05-28T10:36:25;22.30;53.40
24744;DHT22;12844;52.110;5.548;2023-05-28T10:41:23;22.40;53.40
24744;DHT22;12844;52.110;5.548;2023-05-28T10:43:50;22.40;53.40
24744;DHT22;12844;52.110;5.548;2023-05-28T10:46:18;22.40;53.40
24744;DHT22;12844;52.110;5.548;2023-05-28T10:49:06;22.40;53.40
24744;DHT22;12844;52.110;5.548;2023-05-28T10:54:24;22.40;53.40
24744;DHT22;12844;52.110;5.548;2023-05-28T10:57:17;22.40;53.50
24744;DHT22;12844;52.110;5.548;2023-05-28T11:02:10;22.30;53.60
24744;DHT22;12844;52.110;5.548;2023-05-28T11:04:36;22.30;53.70
24744;DHT22;12844;52.110;5.548;2023-05-28T11:07:03;22.30;53.60
24744;DHT22;12844;52.110;5.548;2023-05-28T11:09:29;22.30;53.60
24744;DHT22;12844;52.110;5.548;2023-05-28T11:11:59;22.30;53.60
24744;DHT22;12844;52.110;5.548;2023-05-28T11:14:37;22.30;53.60
24744;DHT22;12844;52.110;5.548;2023-05-28T11:17:12;22.40;53.60
24744;DHT22;12844;52.110;5.548;2023-05-28T11:19:48;22.30;53.50
24744;DHT22;12844;52.110;5.548;2023-05-28T11:22:15;22.40;53.60
24744;DHT22;12844;52.110;5.548;2023-05-28T11:24:53;22.30;53.60
24744;DHT22;12844;52.110;5.548;2023-05-28T11:27:21;22.30;53.60
24744;DHT22;12844;52.110;5.548;2023-05-28T11:29:49;22.30;53.70
24744;DHT22;12844;52.110;5.548;2023-05-28T11:32:17;22.30;53.70
24744;DHT22;12844;52.110;5.548;2023-05-28T11:34:43;22.30;53.70
24744;DHT22;12844;52.110;5.548;2023-05-28T11:37:09;22.30;53.70
24744;DHT22;12844;52.110;5.548;2023-05-28T11:39:34;22.30;53.70
24744;DHT22;12844;52.110;5.548;2023-05-28T11:42:00;22.30;53.70
24744;DHT22;12844;52.110;5.548;2023-05-28T11:44:26;22.30;53.70
24744;DHT22;12844;52.110;5.548;2023-05-28T11:46:55;22.30;53.70
24744;DHT22;12844;52.110;5.548;2023-05-28T11:49:22;22.30;53.70
24744;DHT22;12844;52.110;5.548;2023-05-28T11:51:52;22.30;53.80
24744;DHT22;12844;52.110;5.548;2023-05-28T11:54:18;22.30;53.80
24744;DHT22;12844;52.110;5.548;2023-05-28T11:56:43;22.30;53.80
24744;DHT22;12844;52.110;5.548;2023-05-28T11:59:09;22.30;53.80
24744;DHT22;12844;52.110;5.548;2023-05-28T12:01:35;22.30;53.80
24744;DHT22;12844;52.110;5.548;2023-05-28T12:04:05;22.20;53.80
24744;DHT22;12844;52.110;5.548;2023-05-28T12:06:35;22.30;53.80
24744;DHT22;12844;52.110;5.548;2023-05-28T12:09:14;22.30;53.80
24744;DHT22;12844;52.110;5.548;2023-05-28T12:11:39;22.20;53.80
24744;DHT22;12844;52.110;5.548;2023-05-28T12:14:10;22.20;53.80
24744;DHT22;12844;52.110;5.548;2023-05-28T12:16:45;22.30;53.90
24744;DHT22;12844;52.110;5.548;2023-05-28T12:19:15;22.30;53.90
24744;DHT22;12844;52.110;5.548;2023-05-28T12:21:41;22.30;54.60
24744;DHT22;12844;52.110;5.548;2023-05-28T12:24:14;22.20;53.80
24744;DHT22;12844;52.110;5.548;2023-05-28T12:26:41;22.20;53.80
24744;DHT22;12844;52.110;5.548;2023-05-28T12:29:06;22.30;53.90
24744;DHT22;12844;52.110;5.548;2023-05-28T12:31:32;22.30;53.90
24744;DHT22;12844;52.110;5.548;2023-05-28T12:33:58;22.30;53.90
24744;DHT22;12844;52.110;5.548;2023-05-28T12:36:24;22.30;53.90
24744;DHT22;12844;52.110;5.548;2023-05-28T12:38:50;22.20;53.90
24744;DHT22;12844;52.110;5.548;2023-05-28T12:41:15;22.30;53.90
24744;DHT22;12844;52.110;5.548;2023-05-28T12:43:41;22.20;53.90
24744;DHT22;12844;52.110;5.548;2023-05-28T12:46:08;22.20;54.00
24744;DHT22;12844;52.110;5.548;2023-05-28T12:48:33;22.30;54.00
24744;DHT22;12844;52.110;5.548;2023-05-28T12:50:59;22.20;53.90
24744;DHT22;12844;52.110;5.548;2023-05-28T12:53:25;22.20;54.00
24744;DHT22;12844;52.110;5.548;2023-05-28T12:55:51;22.20;54.00
24744;DHT22;12844;52.110;5.548;2023-05-28T12:58:16;22.20;54.00
24744;DHT22;12844;52.110;5.548;2023-05-28T13:00:42;22.20;54.00
24744;DHT22;12844;52.110;5.548;2023-05-28T13:03:07;22.20;54.00
24744;DHT22;12844;52.110;5.548;2023-05-28T13:05:33;22.20;54.00
24744;DHT22;12844;52.110;5.548;2023-05-28T13:08:02;22.20;54.00
24744;DHT22;12844;52.110;5.548;2023-05-28T13:10:27;22.20;54.00
24744;DHT22;12844;52.110;5.548;2023-05-28T13:12:53;22.20;54.10
24744;DHT22;12844;52.110;5.548;2023-05-28T13:15:19;22.20;54.10
24744;DHT22;12844;52.110;5.548;2023-05-28T13:17:44;22.20;54.10
24744;DHT22;12844;52.110;5.548;2023-05-28T13:20:10;22.20;54.20
24744;DHT22;12844;52.110;5.548;2023-05-28T13:22:36;22.20;54.20
24744;DHT22;12844;52.110;5.548;2023-05-28T13:25:06;22.20;54.20
24744;DHT22;12844;52.110;5.548;2023-05-28T13:27:31;22.20;54.20
24744;DHT22;12844;52.110;5.548;2023-05-28T13:29:58;22.20;54.20
24744;DHT22;12844;52.110;5.548;2023-05-28T13:32:23;22.20;54.20
24744;DHT22;12844;52.110;5.548;2023-05-28T13:34:49;22.20;54.30
24744;DHT22;12844;52.110;5.548;2023-05-28T13:37:14;22.20;54.20
24744;DHT22;12844;52.110;5.548;2023-05-28T13:39:40;22.20;54.20
24744;DHT22;12844;52.110;5.548;2023-05-28T13:42:06;22.20;54.20
24744;DHT22;12844;52.110;5.548;2023-05-28T17:53:07;22.30;54.20
24744;DHT22;12844;52.110;5.548;2023-05-28T17:55:33;22.30;54.20
24744;DHT22;12844;52.110;5.548;2023-05-28T17:57:58;22.20;54.20
24744;DHT22;12844;52.110;5.548;2023-05-28T18:00:24;22.30;54.30
24744;DHT22;12844;52.110;5.548;2023-05-28T18:02:49;22.30;54.30
24744;DHT22;12844;52.110;5.548;2023-05-28T18:05:16;22.20;54.30
24744;DHT22;12844;52.110;5.548;2023-05-28T18:07:42;22.20;54.30
24744;DHT22;12844;52.110;5.548;2023-05-28T18:10:08;22.20;54.30
24744;DHT22;12844;52.110;5.548;2023-05-28T18:12:33;22.20;54.30
24744;DHT22;12844;52.110;5.548;2023-05-28T18:14:59;22.20;54.30
24744;DHT22;12844;52.110;5.548;2023-05-28T18:17:24;22.20;54.30
24744;DHT22;12844;52.110;5.548;2023-05-28T18:19:50;22.20;54.30
24744;DHT22;12844;52.110;5.548;2023-05-28T18:22:17;22.20;54.30
24744;DHT22;12844;52.110;5.548;2023-05-28T18:24:43;22.20;54.30
24744;DHT22;12844;52.110;5.548;2023-05-28T18:27:09;22.20;54.30
24744;DHT22;12844;52.110;5.548;2023-05-28T18:29:35;22.20;54.30
24744;DHT22;12844;52.110;5.548;2023-05-28T18:32:01;22.20;54.30
24744;DHT22;12844;52.110;5.548;2023-05-28T18:34:26;22.20;54.30
24744;DHT22;12844;52.110;5.548;2023-05-28T18:36:52;22.20;54.30
24744;DHT22;12844;52.110;5.548;2023-05-28T18:39:17;22.20;54.30
24744;DHT22;12844;52.110;5.548;2023-05-28T18:41:43;22.20;54.30
24744;DHT22;12844;52.110;5.548;2023-05-28T18:44:10;22.20;54.30
24744;DHT22;12844;52.110;5.548;2023-05-28T18:46:36;22.20;54.30
24744;DHT22;12844;52.110;5.548;2023-05-28T18:49:01;22.20;54.30
24744;DHT22;12844;52.110;5.548;2023-05-28T18:51:27;22.20;54.30
24744;DHT22;12844;52.110;5.548;2023-05-28T18:53:52;22.20;54.30
24744;DHT22;12844;52.110;5.548;2023-05-28T18:56:18;22.20;54.30
24744;DHT22;12844;52.110;5.548;2023-05-28T18:58:43;22.20;54.30
24744;DHT22;12844;52.110;5.548;2023-05-28T19:01:09;22.20;54.30
24744;DHT22;12844;52.110;5.548;2023-05-28T19:03:34;22.20;54.30
24744;DHT22;12844;52.110;5.548;2023-05-28T19:06:01;22.20;54.30
24744;DHT22;12844;52.110;5.548;2023-05-28T19:08:26;22.20;54.30
24744;DHT22;12844;52.110;5.548;2023-05-28T19:10:52;22.20;54.30
24744;DHT22;12844;52.110;5.548;2023-05-28T19:13:17;22.20;54.30
24744;DHT22;12844;52.110;5.548;2023-05-28T19:15:43;22.20;54.30
24744;DHT22;12844;52.110;5.548;2023-05-28T19:18:10;22.20;54.30
24744;DHT22;12844;52.110;5.548;2023-05-28T19:20:36;22.20;54.30
24744;DHT22;12844;52.110;5.548;2023-05-28T19:23:01;22.20;54.30
24744;DHT22;12844;52.110;5.548;2023-05-28T19:25:27;22.20;54.30
24744;DHT22;12844;52.110;5.548;2023-05-28T19:27:52;22.20;54.30
24744;DHT22;12844;52.110;5.548;2023-05-28T19:30:18;22.20;54.30
24744;DHT22;12844;52.110;5.548;2023-05-28T19:32:43;22.20;54.30
24744;DHT22;12844;52.110;5.548;2023-05-28T19:35:09;22.20;54.30
24744;DHT22;12844;52.110;5.548;2023-05-28T19:37:35;22.20;54.40
24744;DHT22;12844;52.110;5.548;2023-05-28T19:40:01;22.20;54.40
24744;DHT22;12844;52.110;5.548;2023-05-28T19:42:27;22.20;54.30
24744;DHT22;12844;52.110;5.548;2023-05-28T19:44:55;22.10;54.30
24744;DHT22;12844;52.110;5.548;2023-05-28T19:47:21;22.10;54.30
24744;DHT22;12844;52.110;5.548;2023-05-28T19:49:47;22.10;54.40
24744;DHT22;12844;52.110;5.548;2023-05-28T19:52:12;22.10;54.30
24744;DHT22;12844;52.110;5.548;2023-05-28T19:54:38;22.10;54.40
24744;DHT22;12844;52.110;5.548;2023-05-28T19:57:04;22.10;54.40
24744;DHT22;12844;52.110;5.548;2023-05-28T19:59:30;22.10;54.40
24744;DHT22;12844;52.110;5.548;2023-05-28T20:01:58;22.10;54.30
24744;DHT22;12844;52.110;5.548;2023-05-28T20:04:24;22.10;54.30
24744;DHT22;12844;52.110;5.548;2023-05-28T20:06:49;22.10;54.30
24744;DHT22;12844;52.110;5.548;2023-05-28T20:09:15;22.10;54.30
24744;DHT22;12844;52.110;5.548;2023-05-28T20:11:41;22.20;54.40
24744;DHT22;12844;52.110;5.548;2023-05-28T20:14:08;22.10;54.30
24744;DHT22;12844;52.110;5.548;2023-05-28T20:16:34;22.10;54.40
24744;DHT22;12844;52.110;5.548;2023-05-28T20:19:01;22.10;54.40
24744;DHT22;12844;52.110;5.548;2023-05-28T20:21:27;22.10;54.40
24744;DHT22;12844;52.110;5.548;2023-05-28T20:23:52;22.10;54.40
24744;DHT22;12844;52.110;5.548;2023-05-28T20:26:18;22.10;54.40
24744;DHT22;12844;52.110;5.548;2023-05-28T20:28:44;22.10;54.40
24744;DHT22;12844;52.110;5.548;2023-05-28T20:31:10;22.10;54.40
24744;DHT22;12844;52.110;5.548;2023-05-28T20:33:35;22.10;54.40
24744;DHT22;12844;52.110;5.548;2023-05-28T20:36:01;22.10;54.40
24744;DHT22;12844;52.110;5.548;2023-05-28T20:38:26;22.10;54.50
24744;DHT22;12844;52.110;5.548;2023-05-28T20:40:52;22.10;54.40
24744;DHT22;12844;52.110;5.548;2023-05-28T20:43:20;22.10;54.40
24744;DHT22;12844;52.110;5.548;2023-05-28T20:45:46;22.10;54.50
24744;DHT22;12844;52.110;5.548;2023-05-28T20:48:14;22.10;54.50
24744;DHT22;12844;52.110;5.548;2023-05-28T20:50:40;22.10;54.50
24744;DHT22;12844;52.110;5.548;2023-05-28T20:53:06;22.10;54.50